Time;durP1;ratioP1;P1;durP2;ratioP2;P2;SDS_P1;SDS_P2;PMS_P1;PMS_P2;Temp;Humidity;BMP_temperature;BMP_pressure;BME280_temperature;BME280_humidity;BME280_pressure;Samples;Min_cycle;Max_cycle;Signal;HPM_P1;HPM_P2
2022/02/08 00:00:04;;;;;;;1.17;1.17;;;;;;;10.99;66.49;102601.13;5046514;28;20025;-78
2022/02/08 00:02:34;;;;;;;0.30;0.30;;;;;;;11.00;66.59;102607.31;5044222;28;20041;-78
2022/02/08 00:05:01;;;;;;;0.10;0.10;;;;;;;11.04;66.63;102602.91;5026441;28;20026;-78
2022/02/08 00:07:29;;;;;;;1.17;1.17;;;;;;;11.03;66.86;102601.13;5029031;28;20034;-79
2022/02/08 00:09:55;;;;;;;0.00;0.00;;;;;;;10.98;66.76;102606.44;5025914;28;20026;-78
2022/02/08 00:12:21;;;;;;;0.10;0.10;;;;;;;10.94;66.88;102613.47;5027877;28;20048;-78
2022/02/08 00:14:48;;;;;;;1.75;1.70;;;;;;;11.08;66.68;102605.59;5023710;28;20026;-78
2022/02/08 00:17:14;;;;;;;1.75;1.65;;;;;;;10.91;67.18;102616.09;5025654;28;20034;-78
2022/02/08 00:19:41;;;;;;;0.10;0.10;;;;;;;10.97;67.23;102613.47;5029252;28;20101;-78
2022/02/08 00:22:07;;;;;;;0.20;0.20;;;;;;;11.08;67.10;102615.31;5029024;28;20037;-79
2022/02/08 00:24:33;;;;;;;0.10;0.10;;;;;;;11.03;67.33;102609.09;5027574;28;20041;-78
2022/02/08 00:27:00;;;;;;;0.10;0.10;;;;;;;11.03;67.10;102617.97;5028345;28;20026;-78
2022/02/08 00:29:26;;;;;;;0.10;0.10;;;;;;;11.10;67.03;102605.59;5025996;28;20022;-78
2022/02/08 00:31:53;;;;;;;0.00;0.00;;;;;;;11.13;67.17;102609.16;5031234;28;20033;-78
2022/02/08 00:34:19;;;;;;;0.30;0.30;;;;;;;11.14;67.18;102615.34;5028758;28;20596;-78
2022/02/08 00:36:45;;;;;;;0.10;0.10;;;;;;;11.11;66.78;102610.91;5028561;28;20084;-78
2022/02/08 00:39:12;;;;;;;0.10;0.10;;;;;;;11.08;67.27;102607.34;5030337;28;20087;-78
2022/02/08 00:41:39;;;;;;;0.15;0.15;;;;;;;11.10;67.48;102602.97;5029358;28;20476;-78
2022/02/08 00:44:14;;;;;;;0.08;0.08;;;;;;;11.06;67.53;102606.47;5028932;28;20492;-78
2022/02/08 00:46:47;;;;;;;0.00;0.00;;;;;;;11.09;68.14;102603.81;5029016;28;20018;-79
2022/02/08 00:49:14;;;;;;;0.57;0.57;;;;;;;11.14;67.82;102616.25;5029940;28;20030;-78
2022/02/08 00:51:45;;;;;;;0.00;0.00;;;;;;;11.16;68.10;102618.91;5028692;28;20392;-77
2022/02/08 00:54:15;;;;;;;0.10;0.10;;;;;;;11.17;68.55;102610.97;5026287;28;20041;-78
2022/02/08 00:56:44;;;;;;;0.10;0.10;;;;;;;11.15;68.11;102612.72;5029210;28;20034;-78
2022/02/08 00:59:10;;;;;;;6.07;2.05;;;;;;;11.15;68.18;102609.16;5026844;28;20381;-78
2022/02/08 01:04:18;;;;;;;0.10;0.10;;;;;;;11.12;68.63;102606.50;5069337;22;20122;-87
2022/02/08 01:06:47;;;;;;;0.17;0.17;;;;;;;11.17;68.58;102600.34;5062798;28;20037;-88
2022/02/08 01:09:18;;;;;;;0.10;0.10;;;;;;;11.21;68.54;102601.25;5054962;28;20021;-88
2022/02/08 01:11:50;;;;;;;0.05;0.05;;;;;;;11.08;68.85;102594.09;5047013;28;20535;-87
2022/02/08 01:14:16;;;;;;;0.10;0.10;;;;;;;11.14;69.11;102602.09;5032729;28;20356;-87
2022/02/08 01:16:44;;;;;;;0.10;0.10;;;;;;;11.19;68.97;102605.69;5024986;28;20068;-87
2022/02/08 01:19:11;;;;;;;0.20;0.20;;;;;;;11.28;68.73;102602.19;5033365;28;20068;-87
2022/02/08 01:21:38;;;;;;;0.10;0.10;;;;;;;11.09;69.76;102598.53;5037440;28;20064;-87
2022/02/08 01:24:08;;;;;;;0.10;0.10;;;;;;;11.28;69.11;102596.88;5035727;28;20030;-87
2022/02/08 01:26:43;;;;;;;0.55;0.55;;;;;;;11.29;69.36;102594.22;5031833;28;20083;-88
2022/02/08 01:29:53;;;;;;;0.10;0.10;;;;;;;11.38;68.89;102598.69;5027226;28;20075;-87
2022/02/08 01:32:01;;;;;;;1.55;1.17;;;;;;;11.44;68.33;102597.81;5032075;28;20538;-88
2022/02/08 01:34:37;;;;;;;0.10;0.10;;;;;;;11.34;69.07;102591.59;5035602;28;20023;-87
2022/02/08 01:37:10;;;;;;;0.20;0.20;;;;;;;11.33;68.81;102589.81;5037950;28;20044;-87
2022/02/08 01:39:48;;;;;;;0.20;0.20;;;;;;;11.44;68.65;102590.75;5022142;28;20049;-89
2022/02/08 01:42:26;;;;;;;0.10;0.10;;;;;;;11.49;68.80;102585.47;5028482;28;20033;-88
2022/02/08 01:48:09;;;;;;;0.30;0.30;;;;;;;11.51;69.21;102598.75;5102027;27;20805;-88
2022/02/08 01:50:36;;;;;;;;;;;;;;;11.71;68.06;102598.81;5085871;28;20059;-87
2022/02/08 01:53:05;;;;;;;1.55;1.05;;;;;;;11.48;69.07;102599.63;5088946;28;19920;-88
2022/02/08 01:55:32;;;;;;;0.10;0.10;;;;;;;11.49;69.13;102594.31;5088666;28;20025;-87
2022/02/08 01:58:01;;;;;;;0.10;0.10;;;;;;;11.51;69.40;102599.63;5089415;28;20028;-88
2022/02/08 02:00:28;;;;;;;0.10;0.10;;;;;;;11.54;69.50;102598.75;5091271;28;20031;-87
2022/02/08 02:02:56;;;;;;;1.02;0.55;;;;;;;11.48;69.74;102611.13;5090723;28;20029;-88
2022/02/08 02:05:22;;;;;;;0.10;0.10;;;;;;;11.50;69.69;102616.44;5089758;28;20082;-88
2022/02/08 02:07:49;;;;;;;0.10;0.10;;;;;;;11.59;69.67;102611.19;5091642;28;20104;-87
2022/02/08 02:10:18;;;;;;;0.47;0.47;;;;;;;11.64;68.86;102620.03;5085459;28;20025;-87
2022/02/08 02:15:32;;;;;;;0.10;0.10;;;;;;;11.71;68.85;102614.75;5071664;27;20431;-88
2022/02/08 02:17:59;;;;;;;0.08;0.08;;;;;;;11.69;69.33;102608.53;5061595;28;20029;-88
2022/02/08 02:20:25;;;;;;;0.10;0.10;;;;;;;11.69;69.14;102616.50;5050450;28;20368;-88
2022/02/08 02:22:52;;;;;;;0.17;0.17;;;;;;;11.79;68.94;102615.69;5043388;28;20390;-87
2022/02/08 02:25:24;;;;;;;0.10;0.10;;;;;;;11.75;69.42;102620.09;5047547;28;20111;-88
2022/02/08 02:27:53;;;;;;;;;;;;;;;11.96;68.85;102618.41;5038854;28;20029;-87
2022/02/08 02:30:20;;;;;;;0.90;0.90;;;;;;;11.79;69.06;102623.66;5029976;28;20367;-87
2022/02/08 02:32:47;;;;;;;0.10;0.10;;;;;;;11.72;69.10;102613.88;5034515;28;20029;-86
2022/02/08 02:35:13;;;;;;;0.10;0.10;;;;;;;11.78;69.23;102597.97;5040293;28;20494;-87
2022/02/08 02:37:40;;;;;;;0.10;0.10;;;;;;;11.64;69.16;102596.16;5046153;28;20030;-87
2022/02/08 02:40:06;;;;;;;0.10;0.10;;;;;;;11.84;68.78;102592.69;5048699;28;20025;-86
2022/02/08 02:42:34;;;;;;;0.10;0.10;;;;;;;11.90;68.73;102587.38;5047506;28;20029;-87
2022/02/08 02:45:02;;;;;;;0.10;0.10;;;;;;;11.87;68.49;102592.66;5043173;28;20396;-87
2022/02/08 02:47:29;;;;;;;0.10;0.10;;;;;;;12.00;68.02;102582.09;5048702;28;20119;-88
2022/02/08 02:49:55;;;;;;;0.10;0.10;;;;;;;11.97;68.06;102578.59;5048719;28;20116;-86
2022/02/08 02:52:21;;;;;;;1.00;1.00;;;;;;;12.00;67.97;102583.00;5040264;28;20049;-86
2022/02/08 02:54:48;;;;;;;0.20;0.20;;;;;;;12.02;67.88;102590.97;5048338;28;20033;-86
2022/02/08 02:57:16;;;;;;;0.43;0.43;;;;;;;12.04;67.34;102594.53;5043076;28;20081;-88
2022/02/08 02:59:45;;;;;;;0.10;0.10;;;;;;;11.98;68.05;102595.41;5044148;28;20079;-88
2022/02/08 03:02:30;;;;;;;0.10;0.10;;;;;;;12.04;67.11;102594.53;5045213;28;20033;-88
2022/02/08 03:05:10;;;;;;;0.10;0.10;;;;;;;12.10;67.73;102597.19;5029460;28;20067;-89
2022/02/08 03:18:50;;;;;;;0.10;0.10;;;;;;;12.09;67.11;102588.34;5034224;28;20033;-87
2022/02/08 03:21:22;;;;;;;0.10;0.10;;;;;;;12.03;67.51;102593.63;5035018;28;20037;-87
2022/02/08 03:23:57;;;;;;;0.20;0.20;;;;;;;12.11;66.70;102606.94;5043471;28;20075;-87
2022/02/08 03:26:30;;;;;;;0.10;0.10;;;;;;;12.01;67.35;102606.00;5027637;28;20025;-87
2022/02/08 03:29:02;;;;;;;0.10;0.10;;;;;;;12.02;66.93;102590.97;5016787;28;20037;-88
2022/02/08 03:31:29;;;;;;;0.10;0.10;;;;;;;12.00;67.21;102598.06;5018702;28;20109;-85
2022/02/08 03:33:55;;;;;;;0.10;0.10;;;;;;;11.97;67.25;102591.88;5016015;28;20093;-87
2022/02/08 03:36:21;;;;;;;1.52;1.42;;;;;;;12.03;67.15;102593.63;5020372;28;20030;-87
2022/02/08 03:38:59;;;;;;;0.10;0.10;;;;;;;12.12;66.63;102598.06;5019470;28;20023;-86
2022/02/08 03:41:28;;;;;;;0.05;0.05;;;;;;;12.20;66.29;102603.41;5021335;28;20030;-86
2022/02/08 03:43:55;;;;;;;0.20;0.20;;;;;;;12.22;65.94;102601.63;5018048;28;20022;-87
2022/02/08 03:46:29;;;;;;;0.10;0.10;;;;;;;12.09;66.35;102606.94;5025385;28;20042;-87
2022/02/08 03:48:55;;;;;;;0.30;0.30;;;;;;;12.09;66.25;102609.59;5017527;28;20169;-86
2022/02/08 03:51:24;;;;;;;0.05;0.05;;;;;;;12.04;65.96;102605.16;5015670;28;20102;-87
2022/02/08 03:53:50;;;;;;;0.10;0.10;;;;;;;12.17;65.26;102608.72;5015427;28;20029;-88
2022/02/08 03:56:20;;;;;;;0.10;0.10;;;;;;;12.12;65.60;102614.03;5017892;28;20042;-88
2022/02/08 03:58:47;;;;;;;0.10;0.10;;;;;;;12.13;65.41;102610.47;5026606;28;20032;-86
2022/02/08 04:04:46;;;;;;;0.10;0.10;;;;;;;12.23;64.55;102611.38;5083067;28;20463;-87
2022/02/08 04:06:49;;;;;;;0.10;0.10;;;;;;;12.18;64.79;102614.03;5065325;28;20037;-87
2022/02/08 04:09:17;;;;;;;0.00;0.00;;;;;;;12.21;64.39;102614.06;5065759;28;20037;-87
2022/02/08 04:11:54;;;;;;;0.10;0.10;;;;;;;12.26;64.55;102612.28;5062228;28;20033;-87
2022/02/08 04:14:33;;;;;;;0.10;0.10;;;;;;;12.29;63.73;102617.59;5029650;28;20109;-86
2022/02/08 04:17:13;;;;;;;0.10;0.10;;;;;;;12.18;63.56;102618.47;5030460;28;20025;-88
2022/02/08 04:42:03;;;;;;;0.10;0.10;;;;;;;12.27;62.82;102626.44;5046473;28;20078;-87
2022/02/08 04:47:24;;;;;;;0.10;0.10;;;;;;;12.23;62.76;102622.91;5110406;27;20407;-86
2022/02/08 04:49:52;;;;;;;0.63;0.63;;;;;;;12.17;63.14;102620.22;5110580;28;20059;-87
2022/02/08 04:52:20;;;;;;;0.10;0.10;;;;;;;12.28;62.51;102614.94;5091881;28;20024;-86
2022/02/08 04:54:55;;;;;;;0.10;0.10;;;;;;;12.30;62.83;102602.53;5109842;28;20512;-87
2022/02/08 04:57:30;;;;;;;0.10;0.10;;;;;;;12.25;62.54;102615.81;5106170;28;20028;-87
2022/02/08 05:36:16;;;;;;;0.10;0.10;;;;;;;12.25;61.67;102599.88;5067977;28;20044;-87
2022/02/08 05:46:58;;;;;;;0.93;0.82;;;;;;;12.39;61.09;102601.66;5081134;27;20423;-85
2022/02/08 05:49:27;;;;;;;0.10;0.10;;;;;;;12.37;60.91;102590.13;5066685;28;20033;-87
2022/02/08 05:52:09;;;;;;;0.10;0.10;;;;;;;12.29;61.58;102580.38;5064869;28;20065;-87
2022/02/08 05:54:35;;;;;;;0.13;0.13;;;;;;;12.35;61.10;102594.56;5050083;28;20029;-89
2022/02/08 05:57:02;;;;;;;0.05;0.05;;;;;;;12.40;60.67;102587.47;5051171;28;20029;-89
2022/02/08 05:59:28;;;;;;;0.10;0.10;;;;;;;12.30;61.27;102594.56;5050383;28;20021;-89
2022/02/08 06:01:54;;;;;;;0.10;0.10;;;;;;;12.40;60.48;102587.47;5045884;28;20064;-87
2022/02/08 06:04:20;;;;;;;1.45;0.73;;;;;;;12.42;60.86;102594.59;5049547;28;20067;-84
2022/02/08 06:06:47;;;;;;;0.10;0.10;;;;;;;12.40;60.37;102598.09;5041750;28;20033;-87
2022/02/08 06:09:13;;;;;;;0.10;0.10;;;;;;;12.54;60.57;102591.03;5049549;28;20068;-88
2022/02/08 06:11:40;;;;;;;0.10;0.10;;;;;;;12.51;60.34;102585.72;5049865;28;20053;-88
2022/02/08 06:14:06;;;;;;;0.00;0.00;;;;;;;12.55;60.12;102603.44;5049742;28;20030;-86
2022/02/08 06:16:34;;;;;;;0.10;0.10;;;;;;;12.53;60.17;102591.03;5047930;28;20063;-87
2022/02/08 06:19:01;;;;;;;0.10;0.10;;;;;;;12.51;60.53;102591.03;5048583;28;20033;-89
2022/02/08 06:21:27;;;;;;;0.13;0.13;;;;;;;12.41;60.31;102602.53;5046010;28;20372;-87
2022/02/08 06:23:53;;;;;;;0.10;0.10;;;;;;;12.48;60.05;102601.66;5047900;28;20033;-87
2022/02/08 06:26:21;;;;;;;0.10;0.10;;;;;;;12.51;60.06;102590.13;5048215;28;20507;-87
2022/02/08 06:28:55;;;;;;;0.05;0.05;;;;;;;12.61;60.09;102597.22;5048327;28;20109;-86
2022/02/08 06:31:22;;;;;;;0.08;0.08;;;;;;;12.59;59.74;102599.00;5048243;28;20025;-87
2022/02/08 06:33:48;;;;;;;0.10;0.10;;;;;;;12.50;59.91;102599.00;5048768;28;20503;-88
2022/02/08 06:36:14;;;;;;;0.10;0.10;;;;;;;12.57;59.75;102592.78;5042893;28;20047;-88
2022/02/08 06:38:40;;;;;;;0.10;0.10;;;;;;;12.56;60.01;102594.56;5046628;28;20029;-87
2022/02/08 06:41:07;;;;;;;0.10;0.10;;;;;;;12.57;60.03;102607.00;5048172;28;20029;-86
2022/02/08 06:43:33;;;;;;;0.35;0.35;;;;;;;12.60;59.40;102601.66;5048395;28;20564;-86
2022/02/08 06:46:00;;;;;;;9.23;4.47;;;;;;;12.60;59.60;102612.28;5041088;28;20041;-87
2022/02/08 06:48:26;;;;;;;0.10;0.10;;;;;;;12.55;59.53;102619.38;5048664;28;20047;-87
2022/02/08 06:50:52;;;;;;;4.45;0.22;;;;;;;12.57;59.23;102620.28;5045800;28;20094;-85
2022/02/08 06:53:19;;;;;;;0.00;0.00;;;;;;;12.61;59.11;102619.38;5045505;28;20086;-86
2022/02/08 06:55:45;;;;;;;0.70;0.70;;;;;;;12.55;59.73;102630.03;5046621;28;20112;-86
2022/02/08 06:58:13;;;;;;;0.10;0.10;;;;;;;12.64;59.36;102623.81;5032469;28;20391;-83
2022/02/08 07:00:42;;;;;;;1.50;1.48;;;;;;;12.65;59.09;102628.25;5026441;28;20473;-87
2022/02/08 07:03:12;;;;;;;0.10;0.10;;;;;;;12.77;59.00;102632.66;5024915;28;20021;-85
2022/02/08 07:05:40;;;;;;;0.10;0.10;;;;;;;12.65;58.43;102636.25;5024596;28;20120;-86
2022/02/08 07:08:07;;;;;;;0.10;0.10;;;;;;;12.78;58.52;102634.44;5033999;28;20025;-86
2022/02/08 07:10:34;;;;;;;2.08;1.65;;;;;;;12.64;59.06;102638.91;5032287;28;20482;-86
2022/02/08 07:13:02;;;;;;;0.10;0.10;;;;;;;12.56;58.45;102639.78;5030433;28;20029;-86
2022/02/08 07:15:29;;;;;;;0.10;0.10;;;;;;;12.69;58.65;102630.03;5033637;28;20095;-86
2022/02/08 07:17:55;;;;;;;0.10;0.10;;;;;;;12.69;58.47;102621.16;5034944;28;20036;-86
2022/02/08 07:20:21;;;;;;;0.05;0.05;;;;;;;12.79;58.29;102626.47;5035212;28;20026;-86
2022/02/08 07:22:47;;;;;;;0.10;0.10;;;;;;;12.76;58.47;102641.53;5034898;28;20030;-86
2022/02/08 07:25:13;;;;;;;0.10;0.10;;;;;;;12.76;58.28;102633.56;5034865;28;20571;-86
2022/02/08 07:27:40;;;;;;;0.00;0.00;;;;;;;12.69;57.93;102627.34;5034875;28;20033;-86
2022/02/08 07:30:10;;;;;;;0.10;0.10;;;;;;;12.70;58.05;102628.25;5034495;28;20036;-86
2022/02/08 07:32:38;;;;;;;0.10;0.10;;;;;;;12.74;57.94;102635.34;5034408;28;20117;-86
2022/02/08 07:38:03;;;;;;;0.10;0.10;;;;;;;12.60;58.25;102641.53;5031492;28;20443;-86
2022/02/08 07:43:19;;;;;;;0.28;0.28;;;;;;;12.68;57.74;102646.84;5061154;28;20404;-85
2022/02/08 07:45:45;;;;;;;0.28;0.28;;;;;;;12.73;57.70;102645.06;5065236;28;20040;-86
2022/02/08 07:48:12;;;;;;;4.03;0.70;;;;;;;12.75;57.11;102653.09;5062393;28;20693;-84
2022/02/08 07:50:40;;;;;;;0.10;0.10;;;;;;;12.63;57.84;102651.28;5056994;28;20442;-85
2022/02/08 07:53:09;;;;;;;0.10;0.10;;;;;;;12.70;57.79;102654.88;5062124;28;20113;-85
2022/02/08 07:55:35;;;;;;;1.23;1.23;;;;;;;12.71;57.80;102653.94;5051828;28;20037;-85
2022/02/08 07:58:02;;;;;;;0.08;0.08;;;;;;;12.83;56.87;102655.72;5055850;28;20052;-85
2022/02/08 08:00:28;;;;;;;0.00;0.00;;;;;;;12.76;57.72;102662.81;5053617;28;20037;-85
2022/02/08 08:02:55;;;;;;;0.08;0.08;;;;;;;12.81;56.95;102652.19;5052855;28;20028;-86
2022/02/08 08:05:21;;;;;;;0.05;0.05;;;;;;;12.84;57.19;102658.38;5052035;28;20037;-86
2022/02/08 08:07:47;;;;;;;0.10;0.10;;;;;;;12.87;57.26;102657.50;5061358;28;20022;-90
2022/02/08 08:10:19;;;;;;;0.10;0.10;;;;;;;12.95;57.39;102659.25;5049958;28;20055;-85
2022/02/08 08:12:49;;;;;;;0.10;0.10;;;;;;;12.93;57.48;102661.06;5049928;28;20068;-86
2022/02/08 08:15:35;;;;;;;0.00;0.00;;;;;;;12.97;57.00;102661.03;5048939;28;20033;-87
2022/02/08 08:18:14;;;;;;;0.10;0.10;;;;;;;13.02;56.98;102656.59;5062395;28;20119;-86
2022/02/08 08:20:41;;;;;;;1.10;0.52;;;;;;;13.05;57.50;102668.13;5048378;28;20398;-87
2022/02/08 08:23:08;;;;;;;0.10;0.10;;;;;;;12.98;57.90;102666.34;5048005;28;20085;-86
2022/02/08 08:25:34;;;;;;;0.10;0.10;;;;;;;13.01;57.18;102661.03;5046963;28;20372;-86
2022/02/08 08:28:00;;;;;;;0.10;0.10;;;;;;;13.07;57.24;102670.78;5048244;28;20029;-87
2022/02/08 08:30:26;;;;;;;0.00;0.00;;;;;;;12.95;57.39;102671.69;5051700;28;20398;-88
2022/02/08 08:32:53;;;;;;;0.10;0.10;;;;;;;12.99;57.70;102667.25;5079690;23;20049;-79
2022/02/08 08:35:20;;;;;;;0.10;0.10;;;;;;;12.83;57.59;102667.25;5045657;28;20480;-79
2022/02/08 08:37:50;;;;;;;5.63;2.15;;;;;;;12.87;57.60;102669.03;5047708;28;20044;-78
2022/02/08 08:40:22;;;;;;;0.00;0.00;;;;;;;12.89;57.43;102661.94;5047738;28;20037;-79
2022/02/08 08:43:02;;;;;;;0.00;0.00;;;;;;;12.94;57.13;102667.25;5059703;28;20029;-78
2022/02/08 08:53:53;;;;;;;0.10;0.10;;;;;;;12.87;57.56;102678.78;5089290;28;20110;-79
2022/02/08 08:56:19;;;;;;;0.10;0.10;;;;;;;13.00;57.39;102683.22;5089510;28;20382;-79
2022/02/08 08:58:45;;;;;;;0.10;0.10;;;;;;;12.97;57.53;102677.00;5089239;28;20025;-77
2022/02/08 09:01:12;;;;;;;0.00;0.00;;;;;;;13.01;57.25;102686.75;5089366;28;20119;-78
2022/02/08 09:03:41;;;;;;;0.10;0.10;;;;;;;12.86;57.26;102692.97;5089210;28;20439;-79
2022/02/08 09:06:07;;;;;;;0.10;0.10;;;;;;;12.97;57.78;102691.19;5089357;28;20031;-79
2022/02/08 09:08:38;;;;;;;0.10;0.10;;;;;;;13.05;57.72;102691.22;5077689;28;20063;-78
2022/02/08 09:11:14;;;;;;;0.10;0.10;;;;;;;13.03;57.47;102700.94;5069012;28;20036;-78
2022/02/08 09:13:50;;;;;;;0.10;0.10;;;;;;;13.15;56.73;102694.75;5084578;28;20028;-78
2022/02/08 09:19:50;;;;;;;0.10;0.10;;;;;;;13.27;56.75;102708.00;5082315;28;20048;-77
2022/02/08 09:24:54;;;;;;;0.10;0.10;;;;;;;13.45;56.51;102693.81;5085152;28;20113;-78
2022/02/08 09:27:45;;;;;;;0.10;0.10;;;;;;;13.54;56.13;102698.25;5088859;28;20036;-78
2022/02/08 09:30:11;;;;;;;1.00;1.00;;;;;;;13.60;56.19;102708.88;5088851;28;20467;-81
2022/02/08 09:35:20;;;;;;;0.10;0.10;;;;;;;13.78;55.58;102702.59;5103174;27;20385;-78
2022/02/08 09:37:47;;;;;;;0.10;0.10;;;;;;;13.76;55.25;102709.72;5090026;28;20029;-80
2022/02/08 09:40:21;;;;;;;0.10;0.10;;;;;;;13.76;55.56;102709.72;5090061;28;20032;-79
2022/02/08 09:42:49;;;;;;;0.10;0.10;;;;;;;13.79;55.47;102699.03;5089965;28;20364;-79
2022/02/08 09:45:19;;;;;;;0.10;0.10;;;;;;;13.89;54.92;102698.13;5090721;28;20379;-79
2022/02/08 09:47:54;;;;;;;0.00;0.00;;;;;;;14.04;54.61;102680.28;5090664;28;20098;-78
2022/02/08 09:50:25;;;;;;;3.67;2.10;;;;;;;13.94;54.89;102691.88;5090855;28;20043;-79
2022/02/08 09:52:55;;;;;;;0.10;0.10;;;;;;;13.94;54.17;102690.09;5090482;28;20036;-79
2022/02/08 09:55:23;;;;;;;0.10;0.10;;;;;;;13.94;54.48;102686.56;5090465;28;20111;-79
2022/02/08 09:57:50;;;;;;;0.00;0.00;;;;;;;13.86;54.18;102684.81;5090378;28;20539;-79
2022/02/08 10:00:18;;;;;;;0.10;0.10;;;;;;;13.93;54.25;102692.78;5090544;28;20039;-79
2022/02/08 10:02:44;;;;;;;0.10;0.10;;;;;;;14.08;54.01;102711.34;5068211;23;20042;-86
2022/02/08 10:05:13;;;;;;;0.20;0.20;;;;;;;14.14;54.11;102695.31;5010552;28;20092;-86
2022/02/08 10:07:39;;;;;;;0.20;0.20;;;;;;;13.97;53.97;102698.09;5010245;28;20488;-86
2022/02/08 10:10:08;;;;;;;0.10;0.10;;;;;;;14.03;53.88;102698.06;5010287;28;20034;-86
2022/02/08 10:13:14;;;;;;;0.00;0.00;;;;;;;14.19;53.85;102703.31;5019299;28;20040;-86
2022/02/08 10:23:57;;;;;;;0.10;0.10;;;;;;;14.26;53.51;102715.72;5029666;28;20076;-87
2022/02/08 10:26:33;;;;;;;0.03;0.03;;;;;;;14.39;52.98;102713.84;5030096;28;20117;-86
2022/02/08 10:29:09;;;;;;;0.10;0.10;;;;;;;14.28;53.11;102702.38;5046639;28;20060;-86
2022/02/08 10:37:49;;;;;;;0.95;0.95;;;;;;;14.42;52.76;102719.19;5049310;28;20046;-86
2022/02/08 10:40:08;;;;;;;0.22;0.22;;;;;;;14.37;52.42;102710.34;5049230;28;20073;-87
2022/02/08 10:42:37;;;;;;;0.10;0.10;;;;;;;14.37;52.44;102739.66;5049354;28;20451;-88
2022/02/08 10:45:18;;;;;;;0.20;0.20;;;;;;;14.47;52.10;102701.38;5044879;28;20084;-86
2022/02/08 10:47:48;;;;;;;0.10;0.10;;;;;;;14.33;52.33;102692.56;5036188;28;20023;-86
2022/02/08 10:50:16;;;;;;;0.10;0.10;;;;;;;14.21;52.41;102706.88;5036256;28;20065;-88
2022/02/08 10:52:44;;;;;;;0.10;0.10;;;;;;;14.38;52.07;102709.41;5035602;28;20025;-86
2022/02/08 10:55:20;;;;;;;0.10;0.10;;;;;;;14.39;52.38;102696.09;5035831;28;20051;-86
2022/02/08 10:57:55;;;;;;;0.08;0.08;;;;;;;14.47;51.94;102693.38;5035760;28;20041;-86
2022/02/08 11:00:30;;;;;;;0.10;0.10;;;;;;;14.48;52.09;102696.91;5035675;28;20022;-86
2022/02/08 11:03:05;;;;;;;1.20;1.20;;;;;;;14.49;51.60;102685.34;5035591;28;20029;-86
2022/02/08 11:08:48;;;;;;;0.03;0.03;;;;;;;14.54;51.66;102687.09;5131536;27;20333;-87
2022/02/08 11:12:19;;;;;;;0.10;0.10;;;;;;;14.75;51.03;102686.97;5131456;27;20078;-87
2022/02/08 11:14:21;;;;;;;0.10;0.10;;;;;;;14.86;51.18;102682.44;5107695;28;20043;-86
2022/02/08 11:20:05;;;;;;;0.40;0.40;;;;;;;14.91;50.98;102682.41;5105686;27;20482;-86
2022/02/08 11:22:46;;;;;;;0.10;0.10;;;;;;;14.91;50.77;102675.28;5082868;28;20032;-86
2022/02/08 11:28:12;;;;;;;2.08;0.95;;;;;;;14.91;50.89;102677.94;5066437;27;20449;-86
2022/02/08 11:30:52;;;;;;;0.98;0.98;;;;;;;14.67;51.03;102685.25;5057354;28;20025;-86
2022/02/08 11:33:40;;;;;;;0.10;0.10;;;;;;;14.67;51.20;102677.25;5050839;28;20034;-86
2022/02/08 11:39:11;;;;;;;0.10;0.10;;;;;;;14.56;51.30;102673.75;5047843;28;20064;-86
2022/02/08 11:48:12;;;;;;;0.10;0.10;;;;;;;14.48;51.37;102668.47;5073588;27;20423;-85
2022/02/08 11:53:34;;;;;;;0.10;0.10;;;;;;;14.88;51.13;102646.84;5061615;27;20908;-86
2022/02/08 11:59:23;;;;;;;0.10;0.10;;;;;;;14.92;50.65;102663.69;5070212;28;20419;-85
2022/02/08 12:02:01;;;;;;;0.13;0.13;;;;;;;15.15;50.42;102681.28;5069710;28;20064;-86
2022/02/08 12:07:16;;;;;;;0.10;0.10;;;;;;;15.14;50.18;102659.06;5090980;27;20410;-87
2022/02/08 12:09:54;;;;;;;0.10;0.10;;;;;;;15.12;50.31;102670.66;5070428;28;20464;-86
2022/02/08 12:28:15;;;;;;;0.10;0.10;;;;;;;14.99;50.51;102680.53;5049070;28;20033;-85
2022/02/08 12:32:03;;;;;;;0.10;0.10;;;;;;;14.91;50.62;102672.59;5067156;27;20435;-85
2022/02/08 12:56:57;;;;;;;0.10;0.10;;;;;;;15.42;50.01;102677.44;5072349;27;20414;-85
2022/02/08 13:02:25;;;;;;;0.00;0.00;;;;;;;15.28;49.91;102672.25;5069704;28;20476;-85
2022/02/08 13:05:32;;;;;;;0.10;0.10;;;;;;;15.24;49.77;102678.53;5044947;28;20025;-86
2022/02/08 14:06:17;;;;;;;0.10;0.10;;;;;;;14.79;51.14;102668.28;5088457;28;20044;-87
2022/02/08 14:08:59;;;;;;;0.17;0.17;;;;;;;14.83;50.99;102670.00;5088394;28;20032;-86
2022/02/08 14:11:50;;;;;;;0.10;0.10;;;;;;;14.99;50.83;102667.19;5089135;28;20033;-86
2022/02/08 14:14:28;;;;;;;0.10;0.10;;;;;;;14.88;51.02;102673.53;5088652;28;20457;-86
2022/02/08 14:17:24;;;;;;;0.05;0.05;;;;;;;14.94;50.78;102658.34;5085757;28;20032;-86
2022/02/08 14:19:49;;;;;;;0.10;0.10;;;;;;;14.73;51.07;102657.66;5077898;28;20045;-87
2022/02/08 14:22:34;;;;;;;0.00;0.00;;;;;;;14.73;51.46;102668.31;5068646;28;20474;-87
2022/02/08 14:30:32;;;;;;;1.60;1.58;;;;;;;14.52;51.80;102694.22;5069472;28;20373;-86
2022/02/08 14:33:23;;;;;;;0.10;0.10;;;;;;;14.45;51.96;102687.16;5037897;28;20033;-86
2022/02/08 15:06:40;;;;;;;0.08;0.08;;;;;;;14.85;50.44;102684.22;5056202;28;20428;-86
2022/02/08 15:08:58;;;;;;;0.00;0.00;;;;;;;14.92;50.83;102678.84;5063040;28;20119;-86
2022/02/08 15:11:33;;;;;;;0.10;0.10;;;;;;;14.75;51.07;102685.19;5069620;28;20032;-86
2022/02/08 15:14:01;;;;;;;0.10;0.10;;;;;;;14.60;51.45;102682.63;5065867;28;20139;-86
2022/02/08 15:16:30;;;;;;;0.10;0.10;;;;;;;14.57;51.36;102692.41;5048594;28;20021;-85
2022/02/08 15:18:57;;;;;;;0.28;0.28;;;;;;;14.47;51.83;102688.03;5050190;28;20029;-84
2022/02/08 15:21:29;;;;;;;0.00;0.00;;;;;;;14.22;51.96;102713.97;5048108;28;20506;-86
2022/02/08 15:23:55;;;;;;;0.10;0.10;;;;;;;14.11;52.44;102700.69;5057138;28;20520;-87
2022/02/08 15:26:22;;;;;;;0.10;0.10;;;;;;;14.09;52.67;102697.13;5064953;28;20471;-86
2022/02/08 15:28:49;;;;;;;0.13;0.13;;;;;;;14.16;52.35;102704.22;5074309;28;20406;-87
2022/02/08 15:31:17;;;;;;;0.32;0.32;;;;;;;14.17;52.50;102699.78;5074367;28;20029;-85
2022/02/08 15:33:43;;;;;;;6.03;1.65;;;;;;;14.10;52.83;102698.03;5070007;28;20021;-85
2022/02/08 15:36:10;;;;;;;0.10;0.10;;;;;;;14.02;53.00;102692.75;5062400;28;20036;-84
2022/02/08 15:38:40;;;;;;;0.00;0.00;;;;;;;14.12;52.72;102706.88;5060405;28;20174;-84
2022/02/08 15:41:08;;;;;;;0.10;0.10;;;;;;;14.17;52.30;102695.31;5061181;28;20017;-83
2022/02/08 15:43:41;;;;;;;0.55;0.55;;;;;;;14.13;52.82;102701.56;5062970;28;20048;-84
2022/02/08 15:46:26;;;;;;;1.02;0.98;;;;;;;14.22;52.74;102698.84;5058712;28;20093;-83
2022/02/08 15:48:54;;;;;;;3.10;2.08;;;;;;;14.08;53.36;102703.34;5054510;28;20040;-83
2022/02/08 15:51:30;;;;;;;0.10;0.10;;;;;;;14.04;53.14;102698.94;5054950;28;20028;-83
2022/02/08 15:56:56;;;;;;;0.10;0.10;;;;;;;14.05;53.35;102695.38;5069790;27;20435;-84
2022/02/08 16:07:59;;;;;;;0.40;0.40;;;;;;;13.63;54.52;102689.34;5046547;27;1339035;-85
2022/02/08 16:10:33;;;;;;;0.10;0.10;;;;;;;13.47;55.14;102694.72;5062429;28;20041;-85
2022/02/08 16:13:26;;;;;;;0.10;0.10;;;;;;;13.46;55.08;102694.69;5059683;28;20088;-82
2022/02/08 16:18:42;;;;;;;0.10;0.10;;;;;;;13.35;55.14;102705.38;5050096;28;20037;-84
2022/02/08 16:21:31;;;;;;;0.10;0.10;;;;;;;13.19;55.88;102713.34;5050478;28;20426;-84
2022/02/08 16:24:07;;;;;;;0.22;0.22;;;;;;;13.20;55.70;102708.94;5050042;28;20064;-83
2022/02/08 16:49:08;;;;;;;2.50;1.90;;;;;;;13.10;56.09;102727.56;5010446;28;20053;-85
2022/02/08 16:52:26;;;;;;;0.20;0.20;;;;;;;13.20;55.54;102723.13;5011367;28;20536;-85
2022/02/08 16:57:18;;;;;;;0.10;0.10;;;;;;;13.18;55.54;102727.53;5049901;28;20106;-85
2022/02/08 16:59:45;;;;;;;0.10;0.10;;;;;;;13.08;55.75;102736.44;5050422;28;20127;-85
2022/02/08 17:02:20;;;;;;;0.10;0.10;;;;;;;13.22;55.76;102729.34;5034388;28;20053;-84
2022/02/08 17:04:46;;;;;;;0.00;0.00;;;;;;;13.25;56.10;102724.00;5029320;28;20416;-88
2022/02/08 17:07:13;;;;;;;0.10;0.10;;;;;;;13.22;55.63;102728.44;5029653;28;20061;-86
2022/02/08 17:12:40;;;;;;;0.10;0.10;;;;;;;13.18;55.81;102738.19;5107066;27;20407;-85
2022/02/08 17:34:59;;;;;;;0.10;0.10;;;;;;;12.95;57.46;102722.25;5089590;28;20040;-85
2022/02/08 17:45:53;;;;;;;0.10;0.10;;;;;;;12.85;57.44;102718.69;5087554;28;20471;-86